Time;durP1;ratioP1;P1;durP2;ratioP2;P2;SDS_P1;SDS_P2;PMS_P1;PMS_P2;Temp;Humidity;BMP_temperature;BMP_pressure;BME280_temperature;BME280_humidity;BME280_pressure;Samples;Min_cycle;Max_cycle;Signal;HPM_P1;HPM_P2
2022/04/07 00:00:20;;;;;;;6.72;3.72;;;;;;;;;;5017718;28;20034;-83
2022/04/07 00:02:46;;;;;;;6.22;3.80;;;;;;;;;;5026118;28;20024;-81
2022/04/07 00:05:12;;;;;;;5.10;3.33;;;;;;;;;;5018410;28;20048;-83
2022/04/07 00:07:38;;;;;;;5.32;3.40;;;;;;;;;;5024753;28;20037;-80
2022/04/07 00:10:03;;;;;;;6.68;3.53;;;;;;;;;;5018279;28;20056;-81
2022/04/07 00:12:31;;;;;;;4.43;3.20;;;;;;;;;;5018279;28;20383;-83
2022/04/07 00:14:59;;;;;;;4.82;3.20;;;;;;;;;;5022586;28;20044;-80
2022/04/07 00:17:25;;;;;;;6.25;3.20;;;;;;;;;;5026284;28;20490;-81
2022/04/07 00:19:51;;;;;;;4.35;3.25;;;;;;;;;;5017811;28;20030;-82
2022/04/07 00:22:16;;;;;;;8.07;3.22;;;;;;;;;;5018060;28;20037;-81
2022/04/07 00:24:42;;;;;;;4.70;3.00;;;;;;;;;;5020456;28;20029;-83
2022/04/07 00:27:07;;;;;;;5.35;2.90;;;;;;;;;;5021137;28;20553;-79
2022/04/07 00:29:33;;;;;;;8.88;2.92;;;;;;;;;;5023333;28;20095;-83
2022/04/07 00:31:59;;;;;;;4.70;2.50;;;;;;;;;;5021569;28;20417;-81
2022/04/07 00:34:24;;;;;;;4.20;2.28;;;;;;;;;;5019770;28;20034;-81
2022/04/07 00:36:50;;;;;;;6.50;2.65;;;;;;;;;;5018834;28;20120;-82
2022/04/07 00:39:15;;;;;;;7.93;2.45;;;;;;;;;;5018963;28;20088;-81
2022/04/07 00:41:42;;;;;;;4.88;2.13;;;;;;;;;;5024436;28;20026;-81
2022/04/07 00:44:08;;;;;;;7.03;2.08;;;;;;;;;;5018918;28;20037;-82
2022/04/07 00:46:40;;;;;;;6.00;1.77;;;;;;;;;;5022220;28;20438;-81
2022/04/07 00:49:07;;;;;;;5.43;1.80;;;;;;;;;;5022685;28;20025;-82
2022/04/07 00:51:33;;;;;;;8.88;2.53;;;;;;;;;;5024256;28;20029;-81
2022/04/07 00:53:59;;;;;;;6.63;2.00;;;;;;;;;;5015941;28;20044;-81
2022/04/07 00:56:26;;;;;;;7.50;1.85;;;;;;;;;;5018543;28;20033;-83
2022/04/07 00:58:53;;;;;;;6.63;1.90;;;;;;;;;;5019818;28;20694;-82
2022/04/07 01:01:20;;;;;;;5.07;1.60;;;;;;;;;;5019641;28;20476;-83
2022/04/07 01:03:47;;;;;;;5.82;1.50;;;;;;;;;;5017588;28;20034;-82
2022/04/07 01:06:12;;;;;;;5.63;1.73;;;;;;;;;;5018255;28;20021;-80
2022/04/07 01:08:38;;;;;;;9.88;1.92;;;;;;;;;;5020740;28;20040;-83
2022/04/07 01:11:03;;;;;;;5.55;1.42;;;;;;;;;;5018253;28;20025;-83
2022/04/07 01:13:46;;;;;;;7.75;2.53;;;;;;;;;;5019979;28;20029;-80
2022/04/07 01:16:13;;;;;;;5.90;1.80;;;;;;;;;;5015502;28;20036;-83
2022/04/07 01:18:38;;;;;;;8.80;2.08;;;;;;;;;;5017787;28;20041;-80
2022/04/07 01:21:04;;;;;;;7.68;2.00;;;;;;;;;;5017571;28;20024;-80
2022/04/07 01:23:34;;;;;;;5.47;1.98;;;;;;;;;;5021010;28;20775;-80
2022/04/07 01:26:03;;;;;;;5.72;1.80;;;;;;;;;;5019555;28;20029;-83
2022/04/07 01:28:28;;;;;;;8.23;2.20;;;;;;;;;;5032685;28;20021;-83
2022/04/07 01:30:53;;;;;;;6.85;1.90;;;;;;;;;;5023171;28;20070;-83
2022/04/07 01:33:19;;;;;;;5.68;1.80;;;;;;;;;;5014461;28;20556;-83
2022/04/07 01:35:45;;;;;;;5.65;2.05;;;;;;;;;;5018875;28;20563;-83
2022/04/07 01:38:10;;;;;;;5.88;2.28;;;;;;;;;;5019923;28;20477;-83
2022/04/07 01:40:36;;;;;;;6.78;2.00;;;;;;;;;;5017862;28;20053;-83
2022/04/07 01:43:07;;;;;;;7.47;2.17;;;;;;;;;;5018916;28;20041;-82
2022/04/07 01:45:33;;;;;;;8.65;2.17;;;;;;;;;;5018075;28;20071;-81
2022/04/07 01:48:00;;;;;;;6.03;2.42;;;;;;;;;;5021620;28;20036;-83
2022/04/07 01:50:26;;;;;;;6.20;2.53;;;;;;;;;;5021583;28;20021;-81
2022/04/07 01:52:51;;;;;;;7.25;2.30;;;;;;;;;;5026414;28;20029;-84
2022/04/07 01:55:17;;;;;;;8.15;2.30;;;;;;;;;;5021734;28;20497;-83
2022/04/07 01:57:44;;;;;;;5.10;2.40;;;;;;;;;;5017364;28;20473;-80
2022/04/07 02:00:10;;;;;;;6.10;2.03;;;;;;;;;;5020562;28;20576;-83
2022/04/07 02:02:36;;;;;;;9.20;2.75;;;;;;;;;;5023341;28;20039;-81
2022/04/07 02:05:08;;;;;;;5.57;2.33;;;;;;;;;;5019070;28;20033;-83
2022/04/07 02:07:35;;;;;;;5.55;2.20;;;;;;;;;;5019298;28;20033;-80
2022/04/07 02:10:00;;;;;;;7.28;2.58;;;;;;;;;;5020236;28;20085;-82
2022/04/07 02:12:27;;;;;;;5.93;2.30;;;;;;;;;;5022788;28;21752;-80
2022/04/07 02:14:53;;;;;;;6.75;3.00;;;;;;;;;;5017910;28;20043;-83
2022/04/07 02:17:20;;;;;;;5.70;2.20;;;;;;;;;;5019199;28;20482;-83
2022/04/07 02:19:50;;;;;;;7.85;2.30;;;;;;;;;;5037499;28;20126;-80
2022/04/07 02:22:19;;;;;;;5.43;2.20;;;;;;;;;;5021395;28;21227;-83
2022/04/07 02:24:45;;;;;;;9.85;2.42;;;;;;;;;;5023886;28;20114;-83
2022/04/07 02:27:11;;;;;;;6.43;2.45;;;;;;;;;;5020809;28;20162;-83
2022/04/07 02:29:36;;;;;;;7.32;2.70;;;;;;;;;;5022860;28;20037;-83
2022/04/07 02:32:02;;;;;;;6.10;2.20;;;;;;;;;;5023001;28;20033;-80
2022/04/07 02:34:28;;;;;;;8.10;2.58;;;;;;;;;;5019895;28;20483;-83
2022/04/07 02:36:53;;;;;;;13.30;2.83;;;;;;;;;;5019919;28;20048;-81
2022/04/07 02:39:18;;;;;;;7.35;2.47;;;;;;;;;;5022656;28;20095;-83
2022/04/07 02:41:44;;;;;;;7.55;2.42;;;;;;;;;;5022558;28;20514;-83
2022/04/07 02:44:09;;;;;;;8.55;3.20;;;;;;;;;;5022028;28;20037;-80
2022/04/07 02:46:35;;;;;;;8.45;2.65;;;;;;;;;;5018411;28;20056;-79
2022/04/07 02:49:00;;;;;;;8.02;2.40;;;;;;;;;;5024157;28;20033;-82
2022/04/07 02:51:26;;;;;;;10.02;2.53;;;;;;;;;;5023069;28;20057;-83
2022/04/07 02:53:57;;;;;;;8.40;2.50;;;;;;;;;;5023165;28;20033;-80
2022/04/07 02:56:23;;;;;;;10.63;2.53;;;;;;;;;;5021658;28;20702;-83
2022/04/07 02:58:48;;;;;;;5.80;2.22;;;;;;;;;;5026928;28;20037;-81
2022/04/07 03:01:14;;;;;;;10.23;2.55;;;;;;;;;;5020645;28;20040;-82
2022/04/07 03:03:40;;;;;;;9.23;2.45;;;;;;;;;;5019615;28;20112;-83
2022/04/07 03:06:05;;;;;;;12.18;2.70;;;;;;;;;;5019542;28;20508;-80
2022/04/07 03:08:32;;;;;;;7.05;2.10;;;;;;;;;;5021456;28;20033;-84
2022/04/07 03:10:58;;;;;;;9.38;2.47;;;;;;;;;;5021952;28;20025;-83
2022/04/07 03:13:24;;;;;;;6.22;1.88;;;;;;;;;;5024368;28;20098;-80
2022/04/07 03:15:49;;;;;;;13.20;2.40;;;;;;;;;;5018482;28;20021;-80
2022/04/07 03:18:14;;;;;;;9.68;2.22;;;;;;;;;;5019804;28;20032;-81
2022/04/07 03:20:40;;;;;;;8.77;1.73;;;;;;;;;;5023219;28;20029;-83
2022/04/07 03:23:05;;;;;;;9.70;2.13;;;;;;;;;;5020010;28;20033;-83
2022/04/07 03:25:31;;;;;;;10.50;2.40;;;;;;;;;;5019761;28;20034;-81
2022/04/07 03:27:56;;;;;;;9.48;2.38;;;;;;;;;;5019189;28;20684;-82
2022/04/07 03:30:22;;;;;;;7.95;2.65;;;;;;;;;;5020007;28;20617;-83
2022/04/07 03:32:47;;;;;;;9.50;2.45;;;;;;;;;;5020271;28;20029;-81
2022/04/07 03:35:13;;;;;;;9.85;2.38;;;;;;;;;;5019035;28;20061;-83
2022/04/07 03:37:38;;;;;;;5.25;1.83;;;;;;;;;;5019164;28;20117;-83
2022/04/07 03:40:04;;;;;;;8.30;2.33;;;;;;;;;;5019452;28;20045;-83
2022/04/07 03:42:30;;;;;;;8.73;2.30;;;;;;;;;;5021523;28;20051;-81
2022/04/07 03:44:55;;;;;;;9.75;2.40;;;;;;;;;;5018943;28;20029;-80
2022/04/07 03:47:20;;;;;;;9.38;2.35;;;;;;;;;;5014240;28;20056;-83
2022/04/07 03:49:46;;;;;;;6.28;1.85;;;;;;;;;;5017853;28;20037;-82
2022/04/07 03:52:11;;;;;;;9.00;2.20;;;;;;;;;;5016924;28;20034;-81
2022/04/07 03:54:36;;;;;;;8.90;2.47;;;;;;;;;;5017878;28;20040;-80
2022/04/07 03:57:02;;;;;;;7.72;2.08;;;;;;;;;;5017128;28;20091;-83
2022/04/07 03:59:28;;;;;;;7.85;1.95;;;;;;;;;;5019230;28;20047;-83
2022/04/07 04:01:54;;;;;;;5.65;2.13;;;;;;;;;;5019702;28;20037;-83
2022/04/07 04:04:22;;;;;;;7.32;2.10;;;;;;;;;;5018856;28;20033;-81
2022/04/07 04:06:47;;;;;;;8.18;2.13;;;;;;;;;;5020056;28;20037;-80
2022/04/07 04:09:13;;;;;;;6.28;1.80;;;;;;;;;;5019051;28;20033;-83
2022/04/07 04:11:38;;;;;;;9.63;2.05;;;;;;;;;;5021145;28;21072;-80
2022/04/07 04:14:04;;;;;;;5.25;2.10;;;;;;;;;;5023089;28;20025;-81
2022/04/07 04:16:30;;;;;;;6.50;2.00;;;;;;;;;;5020576;28;20033;-83
2022/04/07 04:18:55;;;;;;;8.52;2.00;;;;;;;;;;5015922;28;20489;-83
2022/04/07 04:21:21;;;;;;;9.70;2.20;;;;;;;;;;5017332;28;20025;-83
2022/04/07 04:23:48;;;;;;;5.72;1.83;;;;;;;;;;5018632;28;20382;-81
2022/04/07 04:26:13;;;;;;;8.20;2.03;;;;;;;;;;5014152;28;20099;-83
2022/04/07 04:28:39;;;;;;;4.40;1.77;;;;;;;;;;5020427;28;20084;-84
2022/04/07 04:31:04;;;;;;;7.78;2.03;;;;;;;;;;5017319;28;20049;-81
2022/04/07 04:33:29;;;;;;;8.40;2.20;;;;;;;;;;5018755;28;20033;-81
2022/04/07 04:35:55;;;;;;;6.70;2.25;;;;;;;;;;5020340;28;20393;-84
2022/04/07 04:38:20;;;;;;;6.88;2.08;;;;;;;;;;5015091;28;20037;-83
2022/04/07 04:40:46;;;;;;;5.10;1.90;;;;;;;;;;5020185;28;20396;-82
2022/04/07 04:43:11;;;;;;;5.25;1.95;;;;;;;;;;5018943;28;20377;-80
2022/04/07 04:45:36;;;;;;;9.55;2.58;;;;;;;;;;5018911;28;20102;-81
2022/04/07 04:48:02;;;;;;;8.30;1.80;;;;;;;;;;5022409;28;20074;-81
2022/04/07 04:50:27;;;;;;;7.25;1.70;;;;;;;;;;5017453;28;20024;-83
2022/04/07 04:52:53;;;;;;;6.10;1.67;;;;;;;;;;5013717;28;20036;-80
2022/04/07 04:55:19;;;;;;;6.40;1.73;;;;;;;;;;5011907;28;20386;-83
2022/04/07 04:57:44;;;;;;;5.47;1.60;;;;;;;;;;5010090;28;20034;-82
2022/04/07 05:00:11;;;;;;;5.47;1.70;;;;;;;;;;5008919;28;20041;-83
2022/04/07 05:02:39;;;;;;;5.65;2.00;;;;;;;;;;5015004;28;20036;-82
2022/04/07 05:05:06;;;;;;;4.72;1.63;;;;;;;;;;5007896;28;20029;-82
2022/04/07 05:07:31;;;;;;;5.63;1.95;;;;;;;;;;5016574;28;20489;-83
2022/04/07 05:09:56;;;;;;;4.93;1.67;;;;;;;;;;5016709;28;20039;-82
2022/04/07 05:12:22;;;;;;;6.18;1.85;;;;;;;;;;5014097;28;20270;-83
2022/04/07 05:14:47;;;;;;;4.28;1.80;;;;;;;;;;5016976;28;20029;-82
2022/04/07 05:17:12;;;;;;;4.07;1.40;;;;;;;;;;5014000;28;20033;-82
2022/04/07 05:19:38;;;;;;;6.90;2.10;;;;;;;;;;5012505;28;20099;-83
2022/04/07 05:22:04;;;;;;;6.50;1.52;;;;;;;;;;5010522;28;20033;-80
2022/04/07 05:24:29;;;;;;;3.03;1.20;;;;;;;;;;5013464;28;22373;-83
2022/04/07 05:26:55;;;;;;;3.38;1.30;;;;;;;;;;5013177;28;20504;-82
2022/04/07 05:29:20;;;;;;;3.22;0.93;;;;;;;;;;5015366;28;20582;-81
2022/04/07 05:31:45;;;;;;;4.15;1.42;;;;;;;;;;5018132;28;20041;-81
2022/04/07 05:34:13;;;;;;;2.92;1.05;;;;;;;;;;5023770;28;20033;-82
2022/04/07 05:36:39;;;;;;;4.50;1.30;;;;;;;;;;5023005;28;21690;-81
2022/04/07 05:39:13;;;;;;;3.10;1.05;;;;;;;;;;5020994;28;20140;-84
2022/04/07 05:41:39;;;;;;;2.20;0.90;;;;;;;;;;5026666;28;20040;-83
2022/04/07 05:44:05;;;;;;;2.28;1.00;;;;;;;;;;5025194;28;20029;-84
2022/04/07 05:46:30;;;;;;;3.03;0.90;;;;;;;;;;5022375;28;20043;-83
2022/04/07 05:48:56;;;;;;;2.65;0.90;;;;;;;;;;5023999;28;20159;-83
2022/04/07 05:51:21;;;;;;;1.92;0.75;;;;;;;;;;5018658;28;20092;-81
2022/04/07 05:53:46;;;;;;;1.35;0.80;;;;;;;;;;5024668;28;20028;-83
2022/04/07 05:56:12;;;;;;;1.55;0.75;;;;;;;;;;5024653;28;20551;-79
2022/04/07 05:58:37;;;;;;;1.42;0.80;;;;;;;;;;5031404;28;20025;-83
2022/04/07 06:01:03;;;;;;;1.00;0.70;;;;;;;;;;5032083;28;20041;-84
2022/04/07 06:03:28;;;;;;;2.30;0.82;;;;;;;;;;5030252;28;20116;-79
2022/04/07 06:05:53;;;;;;;2.72;0.80;;;;;;;;;;5028876;28;20032;-84
2022/04/07 06:08:19;;;;;;;2.22;0.90;;;;;;;;;;5027990;28;20025;-83
2022/04/07 06:10:45;;;;;;;2.45;0.90;;;;;;;;;;5030668;28;20033;-80
2022/04/07 06:13:11;;;;;;;2.50;1.00;;;;;;;;;;5032277;28;20057;-80
2022/04/07 06:15:37;;;;;;;1.70;0.95;;;;;;;;;;5031980;28;20100;-79
2022/04/07 06:18:03;;;;;;;2.40;1.33;;;;;;;;;;5030409;28;20497;-79
2022/04/07 06:20:29;;;;;;;1.77;1.00;;;;;;;;;;5029192;28;20063;-80
2022/04/07 06:22:54;;;;;;;2.03;1.10;;;;;;;;;;5025705;28;20029;-85
2022/04/07 06:25:19;;;;;;;3.25;1.08;;;;;;;;;;5025686;28;20021;-79
2022/04/07 06:27:47;;;;;;;1.90;1.15;;;;;;;;;;5022216;28;20029;-81
2022/04/07 06:30:17;;;;;;;3.10;1.20;;;;;;;;;;5018674;28;20022;-84
2022/04/07 06:32:44;;;;;;;3.83;1.20;;;;;;;;;;5027761;28;20029;-85
2022/04/07 06:35:12;;;;;;;1.38;0.90;;;;;;;;;;5025626;28;20032;-83
2022/04/07 06:38:03;;;;;;;4.63;1.40;;;;;;;;;;5028299;28;20050;-84
2022/04/07 06:40:29;;;;;;;3.92;1.30;;;;;;;;;;5025284;28;20125;-84
2022/04/07 06:42:57;;;;;;;1.83;1.10;;;;;;;;;;5027403;28;20371;-79
2022/04/07 06:45:23;;;;;;;5.82;1.13;;;;;;;;;;5028387;28;20030;-83
2022/04/07 06:47:49;;;;;;;2.28;1.10;;;;;;;;;;5027003;28;20026;-84
2022/04/07 06:50:16;;;;;;;2.78;1.10;;;;;;;;;;5027868;28;20026;-80
2022/04/07 06:52:42;;;;;;;2.80;1.27;;;;;;;;;;5028502;28;20104;-79
2022/04/07 06:55:09;;;;;;;3.75;1.05;;;;;;;;;;5028210;28;20477;-79
2022/04/07 06:57:46;;;;;;;2.10;1.25;;;;;;;;;;5026127;28;20029;-80
2022/04/07 07:00:13;;;;;;;1.92;1.02;;;;;;;;;;5029753;28;20056;-83
2022/04/07 07:02:38;;;;;;;2.25;0.88;;;;;;;;;;5019646;28;20040;-83
2022/04/07 07:05:04;;;;;;;2.25;1.00;;;;;;;;;;5027058;28;20030;-84
2022/04/07 07:07:29;;;;;;;2.55;1.10;;;;;;;;;;5029060;28;20591;-83
2022/04/07 07:09:54;;;;;;;1.15;0.60;;;;;;;;;;5028983;28;20037;-84
2022/04/07 07:12:21;;;;;;;2.13;0.38;;;;;;;;;;5029006;28;20080;-80
2022/04/07 07:14:47;;;;;;;1.85;0.15;;;;;;;;;;5024175;28;20029;-80
2022/04/07 07:17:13;;;;;;;0.45;0.20;;;;;;;;;;5029459;28;20124;-81
2022/04/07 07:19:38;;;;;;;1.33;0.28;;;;;;;;;;5030123;28;20163;-80
2022/04/07 07:22:04;;;;;;;1.77;0.47;;;;;;;;;;5030236;28;20119;-81
2022/04/07 07:24:29;;;;;;;0.35;0.30;;;;;;;;;;5034130;28;20025;-85
2022/04/07 07:26:54;;;;;;;0.98;0.40;;;;;;;;;;5028815;28;20049;-80
2022/04/07 07:29:19;;;;;;;0.60;0.40;;;;;;;;;;5029697;28;20481;-84
2022/04/07 07:31:45;;;;;;;1.65;0.35;;;;;;;;;;5027812;28;20025;-80
2022/04/07 07:34:10;;;;;;;1.25;0.47;;;;;;;;;;5025393;28;20030;-82
2022/04/07 07:36:35;;;;;;;1.48;0.50;;;;;;;;;;5025469;28;20124;-86
2022/04/07 07:39:01;;;;;;;1.30;0.50;;;;;;;;;;5026730;28;20045;-80
2022/04/07 07:41:26;;;;;;;2.38;0.50;;;;;;;;;;5026585;28;20025;-81
2022/04/07 07:43:52;;;;;;;2.47;0.63;;;;;;;;;;5025714;28;20025;-81
2022/04/07 07:46:17;;;;;;;0.77;0.47;;;;;;;;;;5026578;28;20033;-86
2022/04/07 07:48:43;;;;;;;1.95;0.50;;;;;;;;;;5026519;28;20059;-86
2022/04/07 07:51:09;;;;;;;1.85;0.50;;;;;;;;;;5027883;28;20044;-87
2022/04/07 07:53:34;;;;;;;2.40;0.68;;;;;;;;;;5028454;28;20061;-83
2022/04/07 07:55:59;;;;;;;1.98;0.80;;;;;;;;;;5032830;28;20051;-84
2022/04/07 07:58:25;;;;;;;1.70;0.70;;;;;;;;;;5031158;28;20044;-84
2022/04/07 08:00:51;;;;;;;1.02;0.60;;;;;;;;;;5028711;28;20104;-86
2022/04/07 08:03:16;;;;;;;2.05;0.77;;;;;;;;;;5022513;28;20025;-85
2022/04/07 08:05:41;;;;;;;1.38;0.70;;;;;;;;;;5027301;28;20028;-80
2022/04/07 08:08:07;;;;;;;1.63;0.70;;;;;;;;;;5031666;28;20025;-84
2022/04/07 08:10:33;;;;;;;1.60;0.63;;;;;;;;;;5029096;28;20021;-81
2022/04/07 08:12:58;;;;;;;1.35;0.70;;;;;;;;;;5028851;28;20029;-80
2022/04/07 08:15:24;;;;;;;1.77;0.77;;;;;;;;;;5018291;28;20028;-82
2022/04/07 08:17:50;;;;;;;2.78;1.05;;;;;;;;;;5025080;28;20132;-84
2022/04/07 08:20:17;;;;;;;1.75;0.60;;;;;;;;;;5027708;28;20496;-84
2022/04/07 08:22:43;;;;;;;2.47;0.80;;;;;;;;;;5025667;28;20017;-82
2022/04/07 08:25:08;;;;;;;1.95;0.77;;;;;;;;;;5026280;28;20026;-81
2022/04/07 08:27:34;;;;;;;2.83;0.85;;;;;;;;;;5028372;28;20032;-84
2022/04/07 08:29:59;;;;;;;1.88;0.70;;;;;;;;;;5028459;28;20440;-80
2022/04/07 08:32:24;;;;;;;1.50;0.65;;;;;;;;;;5023058;28;20029;-80
2022/04/07 08:34:50;;;;;;;2.40;0.60;;;;;;;;;;5028405;28;20076;-80
2022/04/07 08:37:15;;;;;;;1.23;0.50;;;;;;;;;;5025869;28;20037;-86
2022/04/07 08:39:41;;;;;;;0.95;0.40;;;;;;;;;;5027761;28;20056;-80
2022/04/07 08:42:06;;;;;;;2.35;0.60;;;;;;;;;;5029071;28;20058;-86
2022/04/07 08:44:32;;;;;;;1.60;0.60;;;;;;;;;;5028294;28;20560;-81
2022/04/07 08:46:59;;;;;;;1.63;0.47;;;;;;;;;;5029755;28;20424;-80
2022/04/07 08:49:27;;;;;;;2.03;0.70;;;;;;;;;;5028481;28;20029;-80
2022/04/07 08:51:53;;;;;;;0.52;0.40;;;;;;;;;;5025085;28;20021;-80
2022/04/07 08:54:20;;;;;;;3.88;0.80;;;;;;;;;;5029649;28;20032;-80
2022/04/07 08:56:46;;;;;;;1.52;0.70;;;;;;;;;;5026671;28;20345;-85
2022/04/07 08:59:11;;;;;;;2.45;0.50;;;;;;;;;;5029521;28;20392;-83
2022/04/07 09:01:37;;;;;;;3.25;0.70;;;;;;;;;;5032000;28;20017;-80
2022/04/07 09:04:02;;;;;;;2.38;1.05;;;;;;;;;;5031928;28;20435;-78
2022/04/07 09:06:29;;;;;;;3.67;0.70;;;;;;;;;;5031333;28;20033;-85
2022/04/07 09:08:54;;;;;;;1.45;0.73;;;;;;;;;;5028648;28;20119;-84
2022/04/07 09:11:21;;;;;;;4.07;0.93;;;;;;;;;;5032802;28;20056;-79
2022/04/07 09:13:47;;;;;;;1.52;0.68;;;;;;;;;;5031697;28;20409;-78
2022/04/07 09:16:14;;;;;;;1.00;0.50;;;;;;;;;;5034514;28;20040;-85
2022/04/07 09:18:41;;;;;;;2.88;0.70;;;;;;;;;;5028758;28;20425;-85
2022/04/07 09:21:16;;;;;;;3.13;0.50;;;;;;;;;;5031513;28;20503;-78
2022/04/07 09:23:42;;;;;;;2.25;0.50;;;;;;;;;;5025737;28;20485;-86
2022/04/07 09:26:12;;;;;;;2.88;0.95;;;;;;;;;;5033299;28;20033;-79
2022/04/07 09:28:37;;;;;;;4.25;0.80;;;;;;;;;;5029376;28;20048;-79
2022/04/07 09:31:03;;;;;;;2.17;0.70;;;;;;;;;;5028719;28;20021;-85
2022/04/07 09:33:29;;;;;;;1.73;0.80;;;;;;;;;;5033092;28;20030;-84
2022/04/07 09:36:05;;;;;;;1.25;0.55;;;;;;;;;;5028902;28;20038;-79
2022/04/07 09:38:31;;;;;;;3.20;1.20;;;;;;;;;;5029429;28;20421;-77
2022/04/07 09:41:05;;;;;;;1.55;0.80;;;;;;;;;;5027248;28;20046;-84
2022/04/07 09:43:42;;;;;;;2.03;0.70;;;;;;;;;;5029486;28;20058;-82
2022/04/07 09:46:09;;;;;;;2.55;1.00;;;;;;;;;;5028127;28;20071;-85
2022/04/07 09:48:36;;;;;;;2.40;0.77;;;;;;;;;;5030389;28;20397;-79
2022/04/07 09:51:04;;;;;;;1.40;0.77;;;;;;;;;;5028315;28;20083;-84
2022/04/07 09:53:37;;;;;;;4.07;0.90;;;;;;;;;;5027309;28;20028;-79
2022/04/07 09:56:03;;;;;;;2.25;0.80;;;;;;;;;;5030784;28;20025;-84
2022/04/07 09:58:30;;;;;;;3.72;0.90;;;;;;;;;;5028273;28;20056;-78
2022/04/07 10:00:59;;;;;;;0.77;0.50;;;;;;;;;;5029185;28;20038;-83
2022/04/07 10:03:26;;;;;;;1.80;0.60;;;;;;;;;;5025211;28;20084;-80
2022/04/07 10:05:51;;;;;;;2.88;0.70;;;;;;;;;;5028193;28;20489;-84
2022/04/07 10:08:18;;;;;;;1.38;0.50;;;;;;;;;;5029453;28;20040;-83
2022/04/07 10:10:44;;;;;;;0.80;0.50;;;;;;;;;;5027602;28;20025;-79
2022/04/07 10:13:10;;;;;;;3.85;0.90;;;;;;;;;;5029049;28;20569;-84
2022/04/07 10:15:36;;;;;;;2.67;0.75;;;;;;;;;;5032966;28;20025;-78
2022/04/07 10:18:08;;;;;;;4.63;0.60;;;;;;;;;;5031245;28;20436;-83
2022/04/07 10:20:39;;;;;;;3.00;0.60;;;;;;;;;;5023474;28;20033;-83
2022/04/07 10:23:16;;;;;;;2.28;0.60;;;;;;;;;;5025255;28;20508;-85
2022/04/07 10:25:49;;;;;;;5.47;0.73;;;;;;;;;;5028432;28;20382;-79
2022/04/07 10:28:16;;;;;;;2.47;0.77;;;;;;;;;;5027102;28;20093;-78
2022/04/07 10:30:48;;;;;;;3.97;0.77;;;;;;;;;;5034484;28;20075;-83
2022/04/07 10:33:41;;;;;;;2.15;0.70;;;;;;;;;;5030462;28;20481;-85
2022/04/07 10:36:15;;;;;;;5.78;0.60;;;;;;;;;;5033211;28;20087;-79
2022/04/07 10:38:42;;;;;;;3.72;0.70;;;;;;;;;;5029245;28;20029;-85
2022/04/07 10:41:08;;;;;;;3.58;0.70;;;;;;;;;;5026410;28;20064;-84
2022/04/07 10:43:38;;;;;;;3.35;0.98;;;;;;;;;;5034404;28;20571;-78
2022/04/07 10:46:06;;;;;;;2.38;0.50;;;;;;;;;;5025942;28;20370;-85
2022/04/07 10:48:33;;;;;;;2.88;0.60;;;;;;;;;;5029135;28;20370;-80
2022/04/07 10:51:04;;;;;;;4.80;1.25;;;;;;;;;;5028447;28;20022;-80
2022/04/07 10:53:35;;;;;;;3.75;0.80;;;;;;;;;;5025551;28;20041;-85
2022/04/07 10:56:21;;;;;;;2.35;0.75;;;;;;;;;;5025978;28;20029;-84
2022/04/07 10:58:56;;;;;;;5.20;0.90;;;;;;;;;;5029349;28;20389;-79
2022/04/07 11:01:33;;;;;;;2.72;0.75;;;;;;;;;;5026398;28;20042;-82
2022/04/07 11:04:25;;;;;;;2.70;0.85;;;;;;;;;;5023851;28;20388;-82
2022/04/07 11:07:10;;;;;;;2.75;0.60;;;;;;;;;;5023172;28;20400;-83
2022/04/07 11:09:46;;;;;;;4.13;0.70;;;;;;;;;;5023237;28;20099;-83
2022/04/07 11:12:18;;;;;;;3.17;0.68;;;;;;;;;;5029073;28;20032;-79
2022/04/07 11:14:44;;;;;;;5.17;0.90;;;;;;;;;;5024472;28;20033;-79
2022/04/07 11:17:15;;;;;;;3.40;0.60;;;;;;;;;;5026028;28;20373;-83
2022/04/07 11:19:59;;;;;;;3.53;0.63;;;;;;;;;;5026990;28;20038;-81
2022/04/07 11:22:44;;;;;;;3.10;0.75;;;;;;;;;;5028909;28;20397;-79
2022/04/07 11:25:09;;;;;;;2.40;0.70;;;;;;;;;;5024442;28;20049;-80
2022/04/07 11:27:36;;;;;;;2.75;0.88;;;;;;;;;;5025735;28;20524;-80
2022/04/07 11:30:04;;;;;;;1.73;0.68;;;;;;;;;;5023389;28;20034;-84
2022/04/07 11:32:30;;;;;;;2.80;0.85;;;;;;;;;;5025220;28;20369;-80
2022/04/07 11:34:58;;;;;;;4.18;1.15;;;;;;;;;;5028464;28;20060;-79
2022/04/07 11:37:23;;;;;;;3.78;0.70;;;;;;;;;;5026784;28;20441;-80
2022/04/07 11:39:53;;;;;;;3.95;1.00;;;;;;;;;;5025885;28;20045;-80
2022/04/07 11:42:19;;;;;;;5.60;1.02;;;;;;;;;;5026217;28;20148;-79
2022/04/07 11:44:46;;;;;;;2.97;1.00;;;;;;;;;;5024035;28;20028;-84
2022/04/07 11:47:26;;;;;;;3.53;0.90;;;;;;;;;;5026421;28;20877;-79
2022/04/07 11:49:51;;;;;;;3.80;0.90;;;;;;;;;;5028579;28;20500;-82
2022/04/07 11:52:28;;;;;;;3.15;0.98;;;;;;;;;;5039138;28;20017;-79
2022/04/07 11:54:58;;;;;;;4.15;0.85;;;;;;;;;;5010515;28;20048;-80
2022/04/07 11:57:27;;;;;;;3.88;1.00;;;;;;;;;;5029849;28;20079;-79
2022/04/07 11:59:58;;;;;;;3.83;0.90;;;;;;;;;;5027019;28;20036;-80
2022/04/07 12:02:24;;;;;;;4.95;0.82;;;;;;;;;;5027276;28;20030;-82
2022/04/07 12:04:57;;;;;;;2.72;0.98;;;;;;;;;;5025738;28;20104;-84
2022/04/07 12:07:23;;;;;;;3.63;1.10;;;;;;;;;;5030265;28;20063;-80
2022/04/07 12:09:49;;;;;;;5.28;1.40;;;;;;;;;;5027274;28;20450;-79
2022/04/07 12:12:16;;;;;;;2.85;0.60;;;;;;;;;;5029182;28;20021;-84
2022/04/07 12:14:42;;;;;;;6.55;1.15;;;;;;;;;;5028738;28;20738;-82
2022/04/07 12:17:09;;;;;;;4.07;1.02;;;;;;;;;;5023337;28;20029;-79
2022/04/07 12:19:47;;;;;;;4.25;0.90;;;;;;;;;;5023124;28;20550;-84
2022/04/07 12:22:14;;;;;;;3.88;0.98;;;;;;;;;;5024133;28;20030;-81
2022/04/07 12:24:57;;;;;;;3.28;1.17;;;;;;;;;;5022052;28;20029;-79
2022/04/07 12:27:34;;;;;;;5.20;1.00;;;;;;;;;;5026437;28;20396;-79
2022/04/07 12:30:01;;;;;;;3.92;1.00;;;;;;;;;;5029316;28;20060;-83
2022/04/07 12:32:45;;;;;;;4.03;0.95;;;;;;;;;;5025021;28;20037;-83
2022/04/07 12:35:11;;;;;;;4.07;1.20;;;;;;;;;;5024841;28;20025;-79
2022/04/07 12:37:39;;;;;;;5.43;0.93;;;;;;;;;;5027350;28;20036;-81
2022/04/07 12:40:06;;;;;;;3.15;0.80;;;;;;;;;;5034388;28;20132;-79
2022/04/07 12:42:33;;;;;;;2.38;1.00;;;;;;;;;;5029140;28;20055;-82
2022/04/07 12:45:06;;;;;;;4.35;0.77;;;;;;;;;;5025824;28;20029;-82
2022/04/07 12:47:32;;;;;;;4.28;0.82;;;;;;;;;;5028172;28;20037;-80
2022/04/07 12:50:01;;;;;;;3.13;0.80;;;;;;;;;;5028645;28;20032;-83
2022/04/07 12:52:43;;;;;;;5.55;0.90;;;;;;;;;;5022327;28;20796;-79
2022/04/07 12:55:10;;;;;;;4.25;0.52;;;;;;;;;;5024124;28;20030;-82
2022/04/07 12:57:41;;;;;;;4.90;0.95;;;;;;;;;;5026450;28;20091;-79
2022/04/07 13:00:10;;;;;;;2.80;0.60;;;;;;;;;;5024609;28;20034;-79
2022/04/07 13:03:01;;;;;;;4.35;1.25;;;;;;;;;;5024373;28;20723;-82
2022/04/07 13:05:29;;;;;;;4.30;1.08;;;;;;;;;;5024405;28;20032;-79
2022/04/07 13:07:59;;;;;;;5.20;1.15;;;;;;;;;;5025876;28;20029;-82
2022/04/07 13:10:26;;;;;;;5.32;1.00;;;;;;;;;;5023347;28;20018;-78
2022/04/07 13:12:51;;;;;;;4.53;1.08;;;;;;;;;;5024701;28;20080;-82
2022/04/07 13:15:17;;;;;;;3.38;0.77;;;;;;;;;;5021429;28;20037;-79
2022/04/07 13:17:43;;;;;;;4.63;1.05;;;;;;;;;;5025648;28;20120;-79
2022/04/07 13:20:09;;;;;;;4.72;1.05;;;;;;;;;;5025734;28;20053;-84
2022/04/07 13:22:35;;;;;;;5.22;0.98;;;;;;;;;;5027508;28;20482;-84
2022/04/07 13:25:01;;;;;;;2.50;0.90;;;;;;;;;;5022451;28;20081;-82
2022/04/07 13:27:26;;;;;;;5.22;0.93;;;;;;;;;;5024140;28;20036;-82
2022/04/07 13:29:52;;;;;;;2.28;0.60;;;;;;;;;;5027645;28;20469;-79
2022/04/07 13:32:17;;;;;;;6.68;0.82;;;;;;;;;;5027385;28;20424;-79
2022/04/07 13:34:42;;;;;;;2.90;0.80;;;;;;;;;;5028587;28;20033;-82
2022/04/07 13:37:08;;;;;;;4.80;1.33;;;;;;;;;;5022014;28;20043;-82
2022/04/07 13:39:34;;;;;;;2.13;0.80;;;;;;;;;;5025816;28;21028;-83
2022/04/07 13:41:59;;;;;;;5.03;1.20;;;;;;;;;;5022530;28;20040;-79
2022/04/07 13:44:25;;;;;;;4.78;0.98;;;;;;;;;;5017122;28;20092;-79
2022/04/07 13:46:50;;;;;;;4.03;0.82;;;;;;;;;;5021409;28;20033;-82
2022/04/07 13:49:18;;;;;;;3.28;0.80;;;;;;;;;;5018134;28;20029;-79
2022/04/07 13:51:44;;;;;;;4.13;1.08;;;;;;;;;;5020561;28;20553;-81
2022/04/07 13:54:10;;;;;;;4.75;1.00;;;;;;;;;;5022181;28;20037;-79
2022/04/07 13:56:38;;;;;;;3.70;1.00;;;;;;;;;;5026210;28;20026;-79
2022/04/07 13:59:03;;;;;;;2.42;0.90;;;;;;;;;;5023161;28;20029;-79
2022/04/07 14:01:29;;;;;;;5.30;1.10;;;;;;;;;;5019998;28;20047;-79
2022/04/07 14:03:55;;;;;;;8.88;1.20;;;;;;;;;;5020342;28;20091;-81
2022/04/07 14:06:21;;;;;;;4.13;0.88;;;;;;;;;;5016799;28;20033;-79
2022/04/07 14:08:48;;;;;;;4.85;1.23;;;;;;;;;;5019511;28;20213;-82
2022/04/07 14:11:14;;;;;;;6.80;0.98;;;;;;;;;;5015504;28;20064;-80
2022/04/07 14:13:40;;;;;;;6.70;1.13;;;;;;;;;;5021357;28;20867;-81
2022/04/07 14:16:08;;;;;;;6.88;1.02;;;;;;;;;;5017869;28;20084;-81
2022/04/07 14:18:34;;;;;;;3.35;0.70;;;;;;;;;;5021971;28;20026;-83
2022/04/07 14:21:00;;;;;;;6.40;1.02;;;;;;;;;;5021325;28;20037;-81
2022/04/07 14:23:25;;;;;;;5.55;1.00;;;;;;;;;;5015009;28;20074;-79
2022/04/07 14:25:50;;;;;;;7.60;1.50;;;;;;;;;;5017445;28;20370;-79
2022/04/07 14:28:16;;;;;;;5.43;1.23;;;;;;;;;;5023323;28;20094;-78
2022/04/07 14:30:42;;;;;;;6.93;1.40;;;;;;;;;;5017447;28;20037;-83
2022/04/07 14:33:08;;;;;;;7.50;1.30;;;;;;;;;;5018069;28;20453;-79
2022/04/07 14:35:33;;;;;;;6.70;1.58;;;;;;;;;;5018876;28;20116;-80
2022/04/07 14:38:00;;;;;;;7.38;1.38;;;;;;;;;;5017845;28;20034;-83
2022/04/07 14:40:26;;;;;;;7.30;1.23;;;;;;;;;;5019570;28;20804;-80
2022/04/07 14:42:52;;;;;;;7.53;1.40;;;;;;;;;;5015634;28;20072;-79